createdAt,value
2017-02-10T00:00:23.681Z,43.54
2017-02-10T00:01:04.260Z,43.45
2017-02-10T00:01:44.866Z,43.54
2017-02-10T00:02:25.464Z,43.84
2017-02-10T00:03:06.051Z,43.64
2017-02-10T00:03:46.751Z,43.74
2017-02-10T00:04:27.339Z,43.64
2017-02-10T00:05:07.959Z,43.74
2017-02-10T00:05:48.541Z,43.64
2017-02-10T00:06:29.134Z,43.64
2017-02-10T00:07:09.801Z,43.45
2017-02-10T00:07:50.422Z,43.64
2017-02-10T00:08:31.007Z,43.74
2017-02-10T00:09:11.674Z,43.74
2017-02-10T00:09:52.283Z,43.64
2017-02-10T00:10:33.003Z,43.54
2017-02-10T00:11:13.670Z,43.74
2017-02-10T00:11:54.317Z,43.74
2017-02-10T00:12:34.930Z,43.74
2017-02-10T00:13:15.645Z,43.84
2017-02-10T00:13:56.238Z,43.54
2017-02-10T00:14:36.816Z,43.74
2017-02-10T00:15:17.455Z,43.54
2017-02-10T00:15:58.062Z,43.74
2017-02-10T00:16:38.706Z,43.26
2017-02-10T00:17:19.286Z,43.35
2017-02-10T00:17:59.940Z,43.45
2017-02-10T00:18:40.547Z,43.45
2017-02-10T00:19:21.153Z,43.45
2017-02-10T00:20:01.797Z,43.64
2017-02-10T00:20:42.384Z,43.74
2017-02-10T00:21:22.965Z,43.64
2017-02-10T00:22:03.543Z,43.84
2017-02-10T00:22:44.142Z,43.64
2017-02-10T00:23:24.722Z,43.84
2017-02-10T00:24:05.303Z,43.74
2017-02-10T00:24:45.975Z,43.74
2017-02-10T00:25:26.610Z,43.64
2017-02-10T00:26:07.214Z,43.74
2017-02-10T00:26:47.890Z,43.54
2017-02-10T00:27:28.587Z,43.71
2017-02-10T00:28:09.178Z,43.74
2017-02-10T00:28:49.851Z,43.74
2017-02-10T00:29:30.462Z,43.64
2017-02-10T00:30:11.072Z,43.16
2017-02-10T00:30:51.770Z,43.26
2017-02-10T00:31:32.384Z,43.35
2017-02-10T00:32:12.975Z,43.26
2017-02-10T00:32:53.562Z,43.62
2017-02-10T00:33:34.141Z,43.54
2017-02-10T00:34:14.849Z,43.35
2017-02-10T00:34:55.474Z,43.16
2017-02-10T00:35:36.073Z,43.35
2017-02-10T00:36:16.652Z,43.35
2017-02-10T00:36:57.279Z,43.45
2017-02-10T00:37:37.872Z,43.16
2017-02-10T00:38:18.499Z,43.35
2017-02-10T00:38:59.085Z,43.43
2017-02-10T00:39:39.681Z,43.54
2017-02-10T00:40:20.361Z,43.45
2017-02-10T00:41:00.961Z,43.71
2017-02-10T00:41:41.559Z,43.81
2017-02-10T00:42:22.177Z,43.43
2017-02-10T00:43:02.762Z,43.93
2017-02-10T00:43:43.374Z,43.62
2017-02-10T00:44:23.948Z,43.71
2017-02-10T00:45:04.524Z,43.64
2017-02-10T00:45:45.187Z,43.64
2017-02-10T00:46:25.826Z,43.62
2017-02-10T00:47:06.430Z,43.81
2017-02-10T00:47:47.123Z,43.84
2017-02-10T00:48:27.825Z,44.12
2017-02-10T00:49:08.433Z,44.1
2017-02-10T00:49:49.127Z,43.91
2017-02-10T00:50:29.723Z,43.62
2017-02-10T00:51:10.308Z,43.71
2017-02-10T00:51:50.885Z,43.71
2017-02-10T00:52:31.481Z,43.74
2017-02-10T00:53:12.074Z,43.91
2017-02-10T00:53:52.675Z,43.93
2017-02-10T00:54:33.256Z,43.71
2017-02-10T00:55:13.844Z,43.81
2017-02-10T00:55:54.497Z,43.71
2017-02-10T00:56:35.123Z,43.71
2017-02-10T00:57:15.727Z,43.62
2017-02-10T00:57:56.311Z,43.71
2017-02-10T00:58:36.894Z,43.81
2017-02-10T00:59:17.488Z,43.71
2017-02-10T00:59:58.074Z,43.71
2017-02-10T01:00:38.691Z,43.71
2017-02-10T01:01:19.344Z,43.14
2017-02-10T01:01:59.919Z,44.1
2017-02-10T01:02:40.550Z,43.54
2017-02-10T01:03:21.153Z,43.81
2017-02-10T01:04:01.735Z,43.71
2017-02-10T01:04:42.323Z,43.91
2017-02-10T01:05:22.894Z,43.81
2017-02-10T01:06:03.475Z,43.71
2017-02-10T01:06:44.142Z,43.52
2017-02-10T01:07:24.731Z,43.74
2017-02-10T01:08:05.361Z,43.74
2017-02-10T01:08:46.025Z,43.14
2017-02-10T01:09:26.638Z,43.33
2017-02-10T01:10:07.253Z,43.71
2017-02-10T01:10:47.912Z,43.23
2017-02-10T01:11:28.490Z,43.14
2017-02-10T01:12:09.127Z,43.71
2017-02-10T01:12:49.712Z,43.71
2017-02-10T01:13:30.366Z,43.71
2017-02-10T01:14:10.974Z,43.52
2017-02-10T01:14:51.552Z,43.62
2017-02-10T01:15:32.134Z,43.71
2017-02-10T01:16:12.741Z,43.64
2017-02-10T01:16:53.340Z,43.71
2017-02-10T01:17:33.991Z,43.91
2017-02-10T01:18:14.618Z,43.81
2017-02-10T01:18:55.238Z,43.81
2017-02-10T01:19:35.987Z,43.81
2017-02-10T01:20:16.597Z,43.93
2017-02-10T01:20:57.177Z,43.71
2017-02-10T01:21:37.860Z,43.71
2017-02-10T01:22:18.476Z,43.81
2017-02-10T01:22:59.072Z,43.71
2017-02-10T01:23:39.718Z,43.91
2017-02-10T01:24:20.301Z,43.71
2017-02-10T01:25:00.943Z,43.91
2017-02-10T01:25:41.724Z,43.52
2017-02-10T01:26:22.303Z,43.62
2017-02-10T01:27:02.952Z,43.71
2017-02-10T01:27:43.532Z,44
2017-02-10T01:28:24.098Z,44
2017-02-10T01:29:04.775Z,43.81
2017-02-10T01:29:45.393Z,43.81
2017-02-10T01:30:25.969Z,43.71
2017-02-10T01:31:06.546Z,43.52
2017-02-10T01:31:47.139Z,43.91
2017-02-10T01:32:27.719Z,44
2017-02-10T01:33:08.355Z,43.71
2017-02-10T01:33:48.915Z,44
2017-02-10T01:34:29.580Z,43.81
2017-02-10T01:35:10.166Z,44.1
2017-02-10T01:35:50.743Z,43.54
2017-02-10T01:36:31.379Z,43.52
2017-02-10T01:37:11.961Z,43.71
2017-02-10T01:37:52.543Z,43.52
2017-02-10T01:38:33.193Z,43.52
2017-02-10T01:39:13.777Z,43.33
2017-02-10T01:39:54.387Z,43.52
2017-02-10T01:40:34.970Z,43.23
2017-02-10T01:41:15.615Z,43.23
2017-02-10T01:41:56.275Z,43.43
2017-02-10T01:42:36.903Z,43.33
2017-02-10T01:43:17.493Z,43.33
2017-02-10T01:43:58.084Z,43.33
2017-02-10T01:44:38.696Z,43.33
2017-02-10T01:45:19.301Z,43.14
2017-02-10T01:45:59.955Z,43.14
2017-02-10T01:46:40.612Z,43.33
2017-02-10T01:47:21.204Z,42.94
2017-02-10T01:48:01.808Z,43.33
2017-02-10T01:48:42.463Z,42.94
2017-02-10T01:49:22.975Z,43.04
2017-02-10T01:50:03.576Z,42.66
2017-02-10T01:50:44.163Z,42.94
2017-02-10T01:51:24.816Z,42.85
2017-02-10T01:52:05.404Z,42.94
2017-02-10T01:52:45.974Z,42.94
2017-02-10T01:53:26.640Z,42.76
2017-02-10T01:54:07.270Z,42.85
2017-02-10T01:54:47.869Z,42.85
2017-02-10T01:55:28.517Z,43.04
2017-02-10T01:56:09.103Z,42.76
2017-02-10T01:56:49.748Z,42.94
2017-02-10T01:57:30.344Z,42.85
2017-02-10T01:58:11.071Z,42.85
2017-02-10T01:58:51.697Z,42.94
2017-02-10T01:59:32.293Z,42.94
2017-02-10T02:00:12.877Z,42.94
2017-02-10T02:00:53.603Z,42.94
2017-02-10T02:01:34.178Z,42.94
2017-02-10T02:02:14.754Z,42.76
2017-02-10T02:02:55.450Z,42.66
2017-02-10T02:03:36.120Z,42.76
2017-02-10T02:04:16.714Z,42.76
2017-02-10T02:04:57.288Z,42.47
2017-02-10T02:05:37.903Z,42.56
2017-02-10T02:06:18.481Z,42.76
2017-02-10T02:06:59.103Z,42.85
2017-02-10T02:07:39.680Z,42.47
2017-02-10T02:08:20.271Z,42.47
2017-02-10T02:09:00.860Z,42.47
2017-02-10T02:09:41.479Z,42.66
2017-02-10T02:10:22.100Z,42.66
2017-02-10T02:11:02.680Z,42.47
2017-02-10T02:11:43.265Z,42.56
2017-02-10T02:12:23.942Z,42.76
2017-02-10T02:13:04.569Z,42.56
2017-02-10T02:13:45.164Z,42.66
2017-02-10T02:14:25.832Z,42.66
2017-02-10T02:15:06.444Z,42.76
2017-02-10T02:15:47.045Z,42.76
2017-02-10T02:16:27.629Z,42.76
2017-02-10T02:17:08.210Z,42.76
2017-02-10T02:17:48.794Z,42.66
2017-02-10T02:18:29.451Z,42.37
2017-02-10T02:19:10.040Z,42.47
2017-02-10T02:19:50.617Z,42.47
2017-02-10T02:20:31.361Z,42.66
2017-02-10T02:21:11.959Z,42.76
2017-02-10T02:21:52.548Z,42.56
2017-02-10T02:22:33.232Z,42.47
2017-02-10T02:23:13.706Z,42.47
2017-02-10T02:23:54.405Z,42.37
2017-02-10T02:24:34.989Z,42.3
2017-02-10T02:25:15.680Z,42.27
2017-02-10T02:25:56.258Z,42.18
2017-02-10T02:26:36.834Z,42.18
2017-02-10T02:27:17.491Z,42.27
2017-02-10T02:27:58.168Z,42.27
2017-02-10T02:28:38.748Z,42.56
2017-02-10T02:29:19.405Z,42.47
2017-02-10T02:29:59.983Z,42.56
2017-02-10T02:30:40.565Z,42.47
2017-02-10T02:31:21.139Z,42.66
2017-02-10T02:32:01.725Z,42.27
2017-02-10T02:32:42.379Z,42.18
2017-02-10T02:33:22.987Z,42.47
2017-02-10T02:34:03.565Z,42.47
2017-02-10T02:34:44.147Z,42.56
2017-02-10T02:35:24.810Z,42.66
2017-02-10T02:36:05.386Z,42.47
2017-02-10T02:36:45.974Z,42.47
2017-02-10T02:37:26.646Z,42.37
2017-02-10T02:38:07.157Z,42.47
2017-02-10T02:38:47.742Z,42.47
2017-02-10T02:39:28.325Z,42.37
2017-02-10T02:40:08.929Z,42.37
2017-02-10T02:40:49.554Z,42.66
2017-02-10T02:41:30.128Z,42.47
2017-02-10T02:42:10.771Z,42.37
2017-02-10T02:42:51.411Z,42.37
2017-02-10T02:43:32.001Z,42.37
2017-02-10T02:44:12.590Z,42.47
2017-02-10T02:44:53.185Z,42.47
2017-02-10T02:45:33.768Z,42.27
2017-02-10T02:46:14.392Z,42.37
2017-02-10T02:46:54.991Z,42.47
2017-02-10T02:47:35.596Z,42.27
2017-02-10T02:48:16.225Z,42.47
2017-02-10T02:48:56.887Z,42.27
2017-02-10T02:49:37.639Z,42.27
2017-02-10T02:50:18.264Z,42.27
2017-02-10T02:50:58.850Z,42.27
2017-02-10T02:51:39.462Z,42.27
2017-02-10T02:52:20.121Z,42.18
2017-02-10T02:53:00.721Z,42.08
2017-02-10T02:53:41.334Z,42.08
2017-02-10T02:54:21.916Z,42.18
2017-02-10T02:55:02.566Z,42.18
2017-02-10T02:55:43.187Z,42.18
2017-02-10T02:56:23.768Z,42.08
2017-02-10T02:57:04.411Z,42.08
2017-02-10T02:57:44.989Z,42.18
2017-02-10T02:58:25.573Z,42.08
2017-02-10T02:59:06.232Z,42.18
2017-02-10T02:59:46.837Z,42.08
2017-02-10T03:00:27.416Z,42.08
2017-02-10T03:01:08.069Z,42.08
2017-02-10T03:01:48.727Z,41.89
2017-02-10T03:02:29.334Z,41.89
2017-02-10T03:03:09.987Z,41.89
2017-02-10T03:03:50.630Z,41.89
2017-02-10T03:04:31.205Z,41.99
2017-02-10T03:05:11.792Z,41.79
2017-02-10T03:05:52.373Z,41.79
2017-02-10T03:06:32.945Z,42.18
2017-02-10T03:07:13.612Z,42.08
2017-02-10T03:07:54.204Z,41.99
2017-02-10T03:08:34.908Z,42.18
2017-02-10T03:09:15.515Z,41.99
2017-02-10T03:09:56.101Z,41.99
2017-02-10T03:10:36.767Z,41.79
2017-02-10T03:11:17.586Z,41.79
2017-02-10T03:11:58.169Z,41.89
2017-02-10T03:12:38.761Z,41.79
2017-02-10T03:13:19.373Z,41.6
2017-02-10T03:13:59.961Z,41.7
2017-02-10T03:14:40.539Z,41.5
2017-02-10T03:15:21.120Z,41.6
2017-02-10T03:16:01.729Z,41.7
2017-02-10T03:16:42.424Z,41.89
2017-02-10T03:17:23.011Z,41.79
2017-02-10T03:18:03.619Z,41.7
2017-02-10T03:18:44.238Z,41.7
2017-02-10T03:19:24.815Z,41.7
2017-02-10T03:20:05.456Z,41.6
2017-02-10T03:20:46.057Z,41.7
2017-02-10T03:21:26.656Z,41.6
2017-02-10T03:22:07.237Z,41.79
2017-02-10T03:22:47.816Z,41.7
2017-02-10T03:23:28.947Z,41.79
2017-02-10T03:24:09.532Z,41.6
2017-02-10T03:24:50.178Z,41.6
2017-02-10T03:25:30.865Z,41.6
2017-02-10T03:26:11.366Z,41.89
2017-02-10T03:26:51.940Z,41.79
2017-02-10T03:27:32.608Z,41.79
2017-02-10T03:28:13.289Z,41.7
2017-02-10T03:28:53.876Z,41.6
2017-02-10T03:29:34.450Z,41.7
2017-02-10T03:30:15.116Z,41.79
2017-02-10T03:30:55.746Z,41.89
2017-02-10T03:31:36.326Z,41.89
2017-02-10T03:32:17.019Z,41.99
2017-02-10T03:32:57.632Z,41.79
2017-02-10T03:33:38.309Z,42.08
2017-02-10T03:34:18.894Z,42.16
2017-02-10T03:34:59.544Z,42.08
2017-02-10T03:35:40.132Z,42.08
2017-02-10T03:36:20.718Z,42.16
2017-02-10T03:37:01.383Z,42.18
2017-02-10T03:37:41.891Z,42.18
2017-02-10T03:38:23.083Z,42.18
2017-02-10T03:39:03.765Z,41.87
2017-02-10T03:39:44.350Z,41.89
2017-02-10T03:40:24.929Z,41.99
2017-02-10T03:41:05.507Z,41.89
2017-02-10T03:41:46.088Z,41.79
2017-02-10T03:42:26.663Z,41.89
2017-02-10T03:43:07.337Z,41.79
2017-02-10T03:43:47.929Z,41.79
2017-02-10T03:44:28.591Z,41.79
2017-02-10T03:46:42.430Z,41.7
2017-02-10T03:47:23.062Z,41.67
2017-02-10T03:48:03.642Z,41.89
2017-02-10T03:48:44.221Z,41.89
2017-02-10T03:49:24.803Z,41.7
2017-02-10T03:50:05.471Z,41.79
2017-02-10T03:50:46.091Z,41.77
2017-02-10T03:51:26.682Z,41.6
2017-02-10T03:52:07.254Z,41.6
2017-02-10T03:52:47.905Z,41.31
2017-02-10T03:53:28.498Z,41.31
2017-02-10T03:54:09.116Z,41.22
2017-02-10T03:54:49.764Z,41.22
2017-02-10T03:55:30.357Z,41.22
2017-02-10T03:56:10.991Z,41.02
2017-02-10T03:56:51.570Z,41.12
2017-02-10T03:57:32.173Z,41.31
2017-02-10T03:58:12.765Z,41.31
2017-02-10T03:58:53.373Z,41.22
2017-02-10T03:59:34.000Z,41.12
2017-02-10T04:00:14.603Z,41.02
2017-02-10T04:00:55.187Z,40.83
2017-02-10T04:01:35.790Z,40.83
2017-02-10T04:02:16.409Z,41.12
2017-02-10T04:02:56.992Z,41.02
2017-02-10T04:03:37.645Z,40.93
2017-02-10T04:04:18.382Z,41.02
2017-02-10T04:04:58.979Z,41.12
2017-02-10T04:05:39.621Z,40.93
2017-02-10T04:06:20.204Z,40.73
2017-02-10T04:07:00.851Z,40.83
2017-02-10T04:07:41.432Z,40.83
2017-02-10T04:08:22.012Z,40.72
2017-02-10T04:09:02.700Z,40.64
2017-02-10T04:09:43.369Z,40.93
2017-02-10T04:10:23.953Z,40.64
2017-02-10T04:11:04.541Z,40.64
2017-02-10T04:11:45.160Z,40.64
2017-02-10T04:12:25.741Z,40.55
2017-02-10T04:13:06.337Z,40.73
2017-02-10T04:13:46.911Z,40.35
2017-02-10T04:14:27.520Z,40.35
2017-02-10T04:15:08.111Z,40.16
2017-02-10T04:15:48.709Z,40.45
2017-02-10T04:16:29.383Z,40.25
2017-02-10T04:17:10.088Z,40.55
2017-02-10T04:17:50.681Z,40.55
2017-02-10T04:18:31.285Z,40.73
2017-02-10T04:19:11.876Z,40.45
2017-02-10T04:19:52.446Z,40.55
2017-02-10T04:20:33.124Z,40.45
2017-02-10T04:21:13.785Z,40.35
2017-02-10T04:21:54.367Z,40.35
2017-02-10T04:22:34.943Z,40.45
2017-02-10T04:23:15.537Z,40.55
2017-02-10T04:23:56.187Z,40.16
2017-02-10T04:24:36.852Z,40.06
2017-02-10T04:25:17.430Z,40.16
2017-02-10T04:25:58.006Z,40.25
2017-02-10T04:26:38.610Z,39.78
2017-02-10T04:27:19.181Z,39.68
2017-02-10T04:27:59.775Z,40.05
2017-02-10T04:28:40.355Z,39.87
2017-02-10T04:29:20.956Z,39.85
2017-02-10T04:30:01.546Z,39.87
2017-02-10T04:30:42.140Z,40.16
2017-02-10T04:31:22.760Z,39.97
2017-02-10T04:32:03.371Z,39.87
2017-02-10T04:32:43.954Z,39.85
2017-02-10T04:33:24.600Z,39.87
2017-02-10T04:34:05.198Z,40.35
2017-02-10T04:34:45.833Z,39.68
2017-02-10T04:35:26.516Z,39.78
2017-02-10T04:36:07.128Z,39.68
2017-02-10T04:36:47.776Z,39.87
2017-02-10T04:37:28.429Z,40.16
2017-02-10T04:38:09.031Z,39.97
2017-02-10T04:38:49.645Z,40.14
2017-02-10T04:39:30.243Z,40.06
2017-02-10T04:40:10.816Z,39.87
2017-02-10T04:40:51.399Z,39.97
2017-02-10T04:41:32.066Z,39.76
2017-02-10T04:42:12.636Z,39.87
2017-02-10T04:42:53.217Z,40.16
2017-02-10T04:43:33.809Z,40.06
2017-02-10T04:44:14.409Z,40.16
2017-02-10T04:44:55.042Z,40.16
2017-02-10T04:45:35.623Z,39.97
2017-02-10T04:46:16.285Z,40.16
2017-02-10T04:46:56.981Z,40.25
2017-02-10T04:47:37.568Z,40.33
2017-02-10T04:48:18.220Z,40.33
2017-02-10T04:48:58.826Z,40.35
2017-02-10T04:49:39.397Z,40.35
2017-02-10T04:50:20.115Z,40.45
2017-02-10T04:51:00.727Z,40.43
2017-02-10T04:51:41.316Z,40.45
2017-02-10T04:52:21.982Z,40.55
2017-02-10T04:53:02.581Z,40.33
2017-02-10T04:53:43.148Z,40.62
2017-02-10T04:54:23.782Z,40.62
2017-02-10T04:55:04.355Z,40.35
2017-02-10T04:55:45.012Z,40.25
2017-02-10T04:56:25.603Z,40.64
2017-02-10T04:57:06.178Z,40.33
2017-02-10T04:57:46.768Z,40.45
2017-02-10T04:58:27.416Z,40.55
2017-02-10T04:59:07.993Z,40.55
2017-02-10T04:59:48.605Z,40.81
2017-02-10T05:00:29.258Z,40.81
2017-02-10T05:01:09.765Z,41.22
2017-02-10T05:01:50.359Z,41
2017-02-10T05:02:30.932Z,40.81
2017-02-10T05:03:11.549Z,40.91
2017-02-10T05:03:52.211Z,40.81
2017-02-10T05:04:32.783Z,41
2017-02-10T05:05:13.402Z,40.81
2017-02-10T05:05:54.084Z,40.81
2017-02-10T05:06:34.602Z,40.91
2017-02-10T05:07:15.273Z,40.81
2017-02-10T05:07:55.871Z,40.81
2017-02-10T05:08:36.520Z,40.72
2017-02-10T05:09:17.117Z,40.72
2017-02-10T05:09:57.695Z,40.62
2017-02-10T05:10:38.344Z,41.2
2017-02-10T05:11:19.014Z,41.2
2017-02-10T05:11:59.589Z,40.81
2017-02-10T05:12:40.194Z,40.72
2017-02-10T05:13:20.883Z,40.91
2017-02-10T05:14:01.465Z,41
2017-02-10T05:14:42.074Z,41
2017-02-10T05:15:22.721Z,41.1
2017-02-10T05:16:03.315Z,41.2
2017-02-10T05:16:44.006Z,41.1
2017-02-10T05:17:24.660Z,41.1
2017-02-10T05:18:05.259Z,41.1
2017-02-10T05:18:45.954Z,41.1
2017-02-10T05:19:26.586Z,41
2017-02-10T05:20:07.181Z,41.1
2017-02-10T05:20:47.798Z,41.2
2017-02-10T05:21:28.378Z,41.29
2017-02-10T05:22:08.977Z,41.2
2017-02-10T05:22:50.215Z,41.2
2017-02-10T05:23:30.789Z,41.29
2017-02-10T05:24:11.441Z,41.2
2017-02-10T05:24:52.022Z,41.49
2017-02-10T05:25:32.649Z,41.39
2017-02-10T05:26:13.330Z,41.39
2017-02-10T05:26:53.930Z,41.29
2017-02-10T05:27:34.517Z,41.49
2017-02-10T05:28:15.093Z,41.49
2017-02-10T05:28:55.710Z,41.58
2017-02-10T05:29:36.381Z,41.39
2017-02-10T05:30:16.952Z,41.29
2017-02-10T05:30:57.526Z,41.49
2017-02-10T05:31:38.108Z,41.67
2017-02-10T05:32:18.679Z,41.58
2017-02-10T05:32:59.362Z,41.77
2017-02-10T05:33:40.007Z,41.58
2017-02-10T05:34:20.574Z,41.67
2017-02-10T05:35:01.143Z,41.77
2017-02-10T05:35:41.720Z,41.67
2017-02-10T05:36:22.367Z,41.67
2017-02-10T05:37:03.022Z,41.77
2017-02-10T05:37:43.597Z,41.77
2017-02-10T05:38:24.293Z,41.87
2017-02-10T05:39:05.010Z,41.67
2017-02-10T05:39:45.600Z,41.58
2017-02-10T05:40:26.290Z,41.77
2017-02-10T05:41:06.908Z,41.77
2017-02-10T05:41:47.484Z,41.77
2017-02-10T05:42:28.069Z,41.96
2017-02-10T05:43:08.732Z,41.87
2017-02-10T05:43:49.319Z,41.77
2017-02-10T05:44:29.947Z,41.87
2017-02-10T05:45:10.608Z,41.87
2017-02-10T05:45:51.203Z,41.96
2017-02-10T05:46:31.821Z,41.96
2017-02-10T05:47:12.424Z,41.96
2017-02-10T05:47:53.003Z,41.96
2017-02-10T05:48:33.677Z,41.96
2017-02-10T05:49:14.248Z,41.96
2017-02-10T05:49:54.827Z,42.25
2017-02-10T05:50:35.409Z,42.06
2017-02-10T05:51:15.992Z,41.96
2017-02-10T05:51:56.639Z,41.96
2017-02-10T05:52:37.219Z,42.16
2017-02-10T05:53:17.830Z,42.16
2017-02-10T05:53:58.492Z,41.87
2017-02-10T05:54:39.082Z,41.96
2017-02-10T05:55:19.776Z,41.87
2017-02-10T05:56:00.391Z,41.87
2017-02-10T05:56:40.972Z,42.25
2017-02-10T05:57:21.692Z,41.87
2017-02-10T05:58:02.288Z,41.77
2017-02-10T05:58:42.872Z,41.87
2017-02-10T05:59:23.539Z,41.67
2017-02-10T06:00:04.162Z,41.77
2017-02-10T06:00:44.760Z,41.87
2017-02-10T06:01:25.347Z,41.96
2017-02-10T06:02:05.956Z,41.77
2017-02-10T06:02:46.550Z,41.77
2017-02-10T06:03:27.265Z,41.77
2017-02-10T06:04:07.905Z,41.67
2017-02-10T06:04:48.503Z,41.77
2017-02-10T06:05:29.101Z,41.96
2017-02-10T06:06:09.689Z,41.77
2017-02-10T06:06:50.284Z,41.87
2017-02-10T06:07:30.870Z,41.96
2017-02-10T06:08:11.431Z,41.96
2017-02-10T06:08:52.094Z,41.87
2017-02-10T06:09:32.763Z,41.77
2017-02-10T06:10:13.341Z,41.77
2017-02-10T06:10:54.061Z,41.67
2017-02-10T06:11:34.681Z,41.96
2017-02-10T06:12:15.255Z,41.87
2017-02-10T06:12:55.857Z,41.77
2017-02-10T06:13:36.540Z,41.77
2017-02-10T06:14:17.110Z,41.96
2017-02-10T06:14:57.807Z,41.87
2017-02-10T06:15:38.467Z,41.77
2017-02-10T06:16:19.074Z,41.87
2017-02-10T06:16:59.711Z,41.87
2017-02-10T06:17:40.357Z,41.96
2017-02-10T06:18:20.950Z,42.06
2017-02-10T06:19:01.523Z,42.06
2017-02-10T06:19:42.234Z,42.06
2017-02-10T06:20:22.831Z,42.16
2017-02-10T06:21:03.446Z,42.16
2017-02-10T06:21:44.034Z,42.16
2017-02-10T06:22:24.726Z,42.16
2017-02-10T06:23:05.353Z,42.35
2017-02-10T06:23:45.937Z,42.35
2017-02-10T06:24:26.515Z,42.35
2017-02-10T06:25:07.169Z,42.54
2017-02-10T06:25:47.746Z,42.35
2017-02-10T06:26:28.319Z,42.25
2017-02-10T06:27:08.903Z,42.16
2017-02-10T06:27:49.567Z,42.44
2017-02-10T06:28:30.240Z,42.25
2017-02-10T06:29:10.812Z,42.54
2017-02-10T06:29:51.422Z,42.54
2017-02-10T06:30:32.006Z,42.44
2017-02-10T06:31:12.600Z,42.35
2017-02-10T06:31:53.266Z,42.54
2017-02-10T06:32:33.902Z,42.54
2017-02-10T06:33:14.479Z,42.64
2017-02-10T06:33:55.154Z,42.25
2017-02-10T06:34:35.755Z,42.44
2017-02-10T06:35:16.338Z,42.73
2017-02-10T06:35:57.023Z,42.54
2017-02-10T06:36:37.604Z,42.83
2017-02-10T06:37:18.189Z,42.73
2017-02-10T06:37:58.886Z,42.44
2017-02-10T06:38:39.523Z,42.54
2017-02-10T06:39:20.130Z,42.35
2017-02-10T06:40:00.772Z,42.44
2017-02-10T06:40:41.351Z,42.54
2017-02-10T06:41:22.007Z,42.44
2017-02-10T06:42:02.641Z,42.44
2017-02-10T06:42:43.224Z,42.44
2017-02-10T06:43:23.849Z,42.35
2017-02-10T06:44:04.537Z,42.35
2017-02-10T06:44:45.115Z,42.25
2017-02-10T06:45:25.704Z,42.25
2017-02-10T06:46:06.295Z,42.54
2017-02-10T06:46:46.880Z,42.54
2017-02-10T06:47:27.508Z,42.54
2017-02-10T06:48:08.090Z,42.44
2017-02-10T06:48:49.640Z,42.35
2017-02-10T06:49:30.271Z,42.44
2017-02-10T06:50:10.847Z,42.44
2017-02-10T06:50:51.520Z,42.44
2017-02-10T06:51:32.131Z,42.35
2017-02-10T06:52:12.731Z,42.54
2017-02-10T06:52:53.321Z,42.44
2017-02-10T06:53:33.889Z,42.54
2017-02-10T06:54:14.562Z,42.44
2017-02-10T06:54:55.298Z,42.35
2017-02-10T06:55:35.943Z,42.44
2017-02-10T06:56:16.542Z,42.44
2017-02-10T06:56:57.157Z,42.44
2017-02-10T06:57:37.815Z,42.35
2017-02-10T06:58:18.379Z,42.54
2017-02-10T06:58:59.005Z,42.44
2017-02-10T06:59:39.585Z,42.73
2017-02-10T07:00:20.170Z,42.73
2017-02-10T07:01:00.747Z,42.64
2017-02-10T07:01:41.332Z,42.73
2017-02-10T07:02:21.986Z,42.54
2017-02-10T07:03:02.565Z,42.73
2017-02-10T07:03:43.167Z,42.73
2017-02-10T07:04:23.755Z,42.44
2017-02-10T07:05:04.329Z,42.64
2017-02-10T07:05:44.983Z,42.54
2017-02-10T07:06:25.619Z,42.83
2017-02-10T07:07:06.191Z,42.73
2017-02-10T07:07:46.804Z,42.54
2017-02-10T07:08:27.440Z,42.64
2017-02-10T07:09:08.051Z,42.44
2017-02-10T07:09:48.700Z,42.35
2017-02-10T07:10:29.324Z,42.35
2017-02-10T07:11:09.914Z,42.44
2017-02-10T07:11:50.533Z,42.25
2017-02-10T07:12:31.125Z,42.25
2017-02-10T07:13:11.762Z,42.25
2017-02-10T07:13:52.405Z,42.25
2017-02-10T07:14:32.994Z,42.16
2017-02-10T07:15:13.579Z,42.25
2017-02-10T07:15:55.131Z,42.16
2017-02-10T07:16:35.726Z,42.06
2017-02-10T07:17:16.297Z,41.96
2017-02-10T07:17:56.881Z,41.77
2017-02-10T07:18:37.458Z,41.87
2017-02-10T07:19:18.069Z,41.77
2017-02-10T07:19:58.651Z,41.87
2017-02-10T07:20:39.325Z,42.16
2017-02-10T07:21:19.966Z,41.87
2017-02-10T07:22:00.568Z,41.96
2017-02-10T07:22:41.251Z,41.96
2017-02-10T07:23:21.880Z,41.96
2017-02-10T07:24:02.475Z,41.87
2017-02-10T07:24:43.065Z,41.77
2017-02-10T07:25:23.683Z,41.77
2017-02-10T07:26:04.352Z,41.87
2017-02-10T07:26:44.957Z,41.77
2017-02-10T07:27:25.528Z,41.87
2017-02-10T07:28:06.265Z,41.77
2017-02-10T07:28:46.874Z,41.58
2017-02-10T07:29:27.452Z,41.58
2017-02-10T07:30:08.068Z,41.58
2017-02-10T07:30:48.694Z,41.67
2017-02-10T07:31:29.293Z,41.58
2017-02-10T07:32:09.915Z,41.67
2017-02-10T07:32:50.558Z,41.49
2017-02-10T07:33:31.153Z,41.87
2017-02-10T07:34:11.771Z,41.77
2017-02-10T07:34:52.347Z,41.87
2017-02-10T07:35:32.952Z,41.96
2017-02-10T07:36:13.591Z,41.96
2017-02-10T07:36:54.170Z,41.96
2017-02-10T07:37:34.782Z,41.77
2017-02-10T07:38:15.361Z,41.87
2017-02-10T07:38:55.958Z,41.77
2017-02-10T07:39:36.592Z,41.96
2017-02-10T07:40:17.275Z,41.77
2017-02-10T07:40:57.794Z,41.87
2017-02-10T07:41:38.380Z,41.77
2017-02-10T07:42:18.959Z,41.77
2017-02-10T07:42:59.552Z,41.87
2017-02-10T07:43:40.208Z,41.77
2017-02-10T07:44:20.779Z,41.87
2017-02-10T07:45:01.363Z,41.77
2017-02-10T07:45:41.962Z,41.77
2017-02-10T07:46:22.594Z,41.67
2017-02-10T07:47:03.253Z,41.58
2017-02-10T07:47:43.836Z,41.67
2017-02-10T07:48:24.529Z,41.58
2017-02-10T07:49:05.220Z,41.87
2017-02-10T07:49:45.810Z,41.77
2017-02-10T07:50:26.491Z,41.77
2017-02-10T07:51:07.064Z,41.77
2017-02-10T07:51:47.649Z,41.77
2017-02-10T07:52:28.281Z,41.58
2017-02-10T07:53:08.969Z,41.67
2017-02-10T07:53:49.561Z,41.49
2017-02-10T07:54:30.277Z,41.58
2017-02-10T07:55:10.917Z,41.67
2017-02-10T07:55:51.497Z,41.67
2017-02-10T07:56:32.177Z,41.58
2017-02-10T07:57:12.790Z,41.67
2017-02-10T07:57:53.377Z,41.67
2017-02-10T07:58:34.014Z,41.67
2017-02-10T07:59:14.634Z,41.77
2017-02-10T07:59:55.217Z,41.77
2017-02-10T08:00:35.903Z,41.77
2017-02-10T08:01:16.504Z,41.77
2017-02-10T08:01:57.099Z,41.77
2017-02-10T08:02:37.701Z,41.77
2017-02-10T08:03:18.343Z,41.77
2017-02-10T08:03:58.904Z,41.87
2017-02-10T08:04:39.561Z,41.87
2017-02-10T08:05:20.151Z,41.67
2017-02-10T08:06:00.746Z,41.77
2017-02-10T08:06:41.353Z,41.77
2017-02-10T08:07:21.930Z,41.77
2017-02-10T08:08:02.511Z,41.96
2017-02-10T08:08:43.108Z,42.16
2017-02-10T08:09:23.708Z,42.16
2017-02-10T08:10:04.290Z,42.16
2017-02-10T08:10:44.909Z,42.16
2017-02-10T08:11:25.520Z,42.06
2017-02-10T08:12:06.168Z,42.16
2017-02-10T08:12:46.765Z,42.06
2017-02-10T08:13:27.393Z,41.96
2017-02-10T08:14:08.063Z,42.16
2017-02-10T08:14:48.648Z,42.16
2017-02-10T08:15:29.227Z,42.25
2017-02-10T08:16:09.871Z,42.06
2017-02-10T08:16:50.441Z,42.06
2017-02-10T08:17:31.040Z,42.25
2017-02-10T08:18:11.620Z,42.16
2017-02-10T08:18:52.212Z,42.25
2017-02-10T08:19:32.850Z,42.25
2017-02-10T08:20:13.441Z,42.25
2017-02-10T08:20:54.036Z,42.16
2017-02-10T08:21:34.664Z,42.44
2017-02-10T08:22:15.252Z,42.54
2017-02-10T08:22:55.844Z,42.35
2017-02-10T08:23:36.432Z,42.35
2017-02-10T08:24:17.009Z,42.44
2017-02-10T08:24:57.657Z,42.44
2017-02-10T08:25:38.246Z,42.64
2017-02-10T08:26:18.917Z,42.83
2017-02-10T08:26:59.558Z,42.73
2017-02-10T08:27:40.133Z,42.52
2017-02-10T08:28:20.746Z,42.64
2017-02-10T08:29:01.324Z,42.64
2017-02-10T08:29:41.905Z,42.73
2017-02-10T08:30:22.538Z,42.44
2017-02-10T08:31:03.120Z,42.73
2017-02-10T08:31:43.705Z,42.35
2017-02-10T08:32:24.352Z,42.83
2017-02-10T08:33:04.929Z,42.54
2017-02-10T08:33:45.514Z,42.73
2017-02-10T08:34:26.150Z,42.64
2017-02-10T08:35:06.714Z,42.64
2017-02-10T08:35:47.295Z,42.73
2017-02-10T08:36:27.894Z,42.73
2017-02-10T08:37:08.555Z,42.73
2017-02-10T08:37:49.134Z,42.73
2017-02-10T08:38:29.707Z,42.64
2017-02-10T08:39:10.343Z,42.64
2017-02-10T08:39:51.117Z,42.83
2017-02-10T08:40:31.691Z,42.73
2017-02-10T08:41:12.285Z,42.73
2017-02-10T08:41:52.903Z,42.64
2017-02-10T08:42:33.510Z,42.93
2017-02-10T08:43:14.173Z,42.83
2017-02-10T08:43:54.792Z,42.73
2017-02-10T08:44:35.378Z,42.73
2017-02-10T08:45:15.996Z,42.73
2017-02-10T08:45:56.572Z,42.83